Time;durP1;ratioP1;P1;durP2;ratioP2;P2;SDS_P1;SDS_P2;PMS_P1;PMS_P2;Temp;Humidity;BMP_temperature;BMP_pressure;BME280_temperature;BME280_humidity;BME280_pressure;Samples;Min_cycle;Max_cycle;Signal;HPM_P1;HPM_P2
2023/07/14 07:17:57;;;;;;;2.88;1.10;;;21.30;99.90;;;;;;4909979;29;20229;-73
2023/07/14 07:20:23;;;;;;;2.55;1.15;;;21.60;99.90;;;;;;4917503;29;20661;-74
2023/07/14 07:22:50;;;;;;;5.03;0.93;;;21.70;99.90;;;;;;4906549;29;20705;-75
2023/07/14 07:25:17;;;;;;;4.07;1.48;;;22.00;99.90;;;;;;4914744;29;20220;-75
2023/07/14 07:27:44;;;;;;;3.13;1.05;;;22.40;99.90;;;;;;4907959;29;20211;-76
2023/07/14 07:30:12;;;;;;;2.75;0.80;;;23.10;99.90;;;;;;4898626;29;20689;-75
2023/07/14 07:32:40;;;;;;;2.38;0.90;;;24.10;99.90;;;;;;4898407;29;20626;-72
2023/07/14 07:35:09;;;;;;;3.85;1.05;;;24.70;99.90;;;;;;4916708;29;20617;-72
2023/07/14 07:37:36;;;;;;;1.85;1.13;;;24.90;99.90;;;;;;4909180;29;20202;-72
2023/07/14 07:40:04;;;;;;;2.00;0.95;;;25.20;99.90;;;;;;4898553;29;20770;-73
2023/07/14 07:42:31;;;;;;;3.78;0.95;;;25.20;99.90;;;;;;4898455;29;20242;-72
2023/07/14 07:44:58;;;;;;;2.10;1.10;;;25.60;99.90;;;;;;4911430;29;20216;-71
2023/07/14 07:47:25;;;;;;;2.28;1.05;;;26.30;99.90;;;;;;4910618;29;20568;-72
2023/07/14 07:49:52;;;;;;;3.03;0.90;;;26.80;99.10;;;;;;4898348;29;20318;-72
2023/07/14 07:52:20;;;;;;;2.83;1.02;;;27.00;98.50;;;;;;4898186;29;20210;-73
2023/07/14 07:54:47;;;;;;;3.63;0.98;;;27.00;98.00;;;;;;4910131;29;20296;-71
2023/07/14 07:57:14;;;;;;;2.53;1.05;;;26.90;98.40;;;;;;4912110;29;20301;-73
2023/07/14 07:59:41;;;;;;;2.85;1.08;;;26.60;99.10;;;;;;4898299;29;20210;-73
2023/07/14 08:02:08;;;;;;;1.52;0.80;;;26.40;99.00;;;;;;4897609;29;20677;-74
2023/07/14 08:04:35;;;;;;;2.22;1.00;;;26.00;99.30;;;;;;4898207;29;20236;-72
2023/07/14 08:07:02;;;;;;;2.90;1.10;;;26.20;99.70;;;;;;4898267;29;20214;-70
2023/07/14 08:09:30;;;;;;;4.03;1.08;;;26.60;98.90;;;;;;4898102;29;20214;-71
2023/07/14 08:11:58;;;;;;;1.00;0.65;;;26.90;98.50;;;;;;4897749;29;20246;-71
2023/07/14 08:14:25;;;;;;;1.63;0.80;;;28.00;98.20;;;;;;4898084;29;20309;-70
2023/07/14 08:16:51;;;;;;;5.68;1.00;;;28.20;97.30;;;;;;4897349;29;20222;-71
2023/07/14 08:19:18;;;;;;;1.80;0.95;;;28.20;96.90;;;;;;4897232;29;20240;-72
2023/07/14 08:21:45;;;;;;;4.60;0.93;;;28.10;97.00;;;;;;4897545;29;20217;-70
2023/07/14 08:24:12;;;;;;;2.35;1.00;;;28.30;96.90;;;;;;4896733;29;20246;-72
2023/07/14 08:26:41;;;;;;;4.40;1.20;;;27.90;97.00;;;;;;4896727;29;20222;-71
2023/07/14 08:29:09;;;;;;;3.80;1.05;;;28.50;96.90;;;;;;4897156;29;20245;-73
2023/07/14 08:31:36;;;;;;;2.28;1.10;;;28.30;96.50;;;;;;4897172;29;20217;-74
2023/07/14 08:34:04;;;;;;;4.32;1.30;;;28.30;96.20;;;;;;4896924;29;20230;-73
2023/07/14 08:36:30;;;;;;;2.50;1.02;;;27.70;96.80;;;;;;4897150;29;20242;-73
2023/07/14 08:38:57;;;;;;;2.80;1.20;;;28.00;96.90;;;;;;4896801;29;20207;-73
2023/07/14 08:41:28;;;;;;;4.55;1.10;;;27.70;96.70;;;;;;4897248;29;20305;-72
2023/07/14 08:44:23;;;;;;;3.42;1.08;;;27.90;96.80;;;;;;4896835;29;20321;-73
2023/07/14 08:47:01;;;;;;;4.03;1.77;;;28.10;96.20;;;;;;4897742;29;20210;-71
2023/07/14 08:49:32;;;;;;;2.45;1.27;;;27.70;96.60;;;;;;4903949;29;20214;-73
2023/07/14 08:52:03;;;;;;;3.97;1.33;;;28.30;97.00;;;;;;4903709;29;20210;-70
2023/07/14 08:54:40;;;;;;;5.25;1.20;;;28.70;96.50;;;;;;4903440;29;20646;-73
2023/07/14 08:57:15;;;;;;;3.47;1.27;;;28.20;96.00;;;;;;4903304;29;20209;-70
2023/07/14 08:59:46;;;;;;;3.63;1.45;;;28.20;96.80;;;;;;4903487;29;20223;-73
2023/07/14 09:02:21;;;;;;;4.00;1.40;;;28.70;96.50;;;;;;4903380;29;20217;-71
2023/07/14 09:04:58;;;;;;;2.08;1.40;;;29.50;95.30;;;;;;4903352;29;20223;-73
2023/07/14 09:07:25;;;;;;;4.28;1.52;;;29.30;95.60;;;;;;4903154;29;20216;-71
2023/07/14 09:09:53;;;;;;;6.10;1.30;;;28.90;95.30;;;;;;4902993;29;20210;-71
2023/07/14 09:12:25;;;;;;;3.60;1.40;;;28.00;95.90;;;;;;4902814;29;20665;-71
2023/07/14 09:14:58;;;;;;;2.45;1.45;;;28.30;96.10;;;;;;4903128;29;20210;-73
2023/07/14 09:17:34;;;;;;;7.35;1.50;;;28.40;95.80;;;;;;4867172;29;1079018;-73
2023/07/14 09:20:28;;;;;;;4.25;1.48;;;27.50;95.60;;;;;;4903936;29;20209;-73
2023/07/14 09:23:02;;;;;;;3.40;1.30;;;27.40;96.60;;;;;;4903635;29;20240;-71
2023/07/14 09:25:39;;;;;;;4.00;1.40;;;27.40;96.20;;;;;;4903725;29;20220;-70
2023/07/14 09:28:12;;;;;;;3.17;1.35;;;27.20;96.80;;;;;;4903784;29;20210;-72
2023/07/14 09:30:41;;;;;;;3.25;1.67;;;27.00;97.10;;;;;;4903832;29;20236;-72
2023/07/14 09:33:13;;;;;;;2.30;1.25;;;26.90;97.90;;;;;;4903482;29;20248;-69
2023/07/14 09:35:40;;;;;;;3.00;1.65;;;26.90;96.90;;;;;;4903579;29;20253;-73
2023/07/14 09:38:15;;;;;;;4.88;1.70;;;26.50;97.10;;;;;;4903479;29;20309;-72
2023/07/14 09:40:44;;;;;;;5.00;1.45;;;26.50;97.90;;;;;;4903749;29;20300;-73
2023/07/14 09:43:12;;;;;;;5.03;1.52;;;26.80;98.00;;;;;;4903648;29;20234;-72
2023/07/14 09:45:41;;;;;;;5.47;1.30;;;27.20;97.80;;;;;;4903716;29;20216;-69
2023/07/14 09:48:16;;;;;;;3.55;1.50;;;27.60;97.70;;;;;;4903601;29;20214;-73
2023/07/14 09:50:52;;;;;;;4.55;1.40;;;27.50;96.50;;;;;;4903813;29;20772;-72
2023/07/14 09:53:19;;;;;;;4.10;1.48;;;27.40;96.90;;;;;;4903400;29;20239;-72
2023/07/14 09:55:50;;;;;;;5.43;1.70;;;27.20;97.10;;;;;;4903595;29;20210;-75
2023/07/14 09:58:18;;;;;;;3.17;1.27;;;26.80;97.00;;;;;;4902091;29;20222;-73
2023/07/14 10:00:49;;;;;;;4.97;1.42;;;26.60;97.80;;;;;;4900356;29;20560;-74
2023/07/14 10:03:17;;;;;;;2.88;1.15;;;26.70;97.90;;;;;;4900297;29;20294;-71
2023/07/14 10:05:52;;;;;;;2.67;1.08;;;26.70;97.40;;;;;;4900549;29;20217;-72
2023/07/14 10:08:33;;;;;;;2.38;0.88;;;26.20;97.40;;;;;;4900341;29;20296;-72
2023/07/14 10:11:10;;;;;;;2.63;1.05;;;26.20;98.50;;;;;;4900260;29;20685;-72
2023/07/14 10:13:37;;;;;;;1.10;0.80;;;26.30;97.40;;;;;;4900540;29;20316;-75
2023/07/14 10:16:08;;;;;;;1.30;0.90;;;26.30;97.20;;;;;;4900048;29;20223;-75
2023/07/14 10:18:48;;;;;;;3.28;0.93;;;26.00;97.70;;;;;;4900155;29;20576;-75
2023/07/14 10:21:22;;;;;;;1.63;1.00;;;26.10;97.70;;;;;;4900343;29;20211;-75
2023/07/14 10:23:58;;;;;;;2.05;0.90;;;26.40;97.40;;;;;;4900000;29;20407;-73
2023/07/14 10:26:27;;;;;;;2.15;0.75;;;26.50;97.80;;;;;;4899856;29;20246;-72
2023/07/14 10:28:55;;;;;;;2.08;0.90;;;26.60;97.90;;;;;;4900052;29;20295;-72
2023/07/14 10:31:29;;;;;;;2.80;0.77;;;26.50;97.30;;;;;;4900011;29;20267;-74
2023/07/14 10:34:10;;;;;;;2.58;0.80;;;26.70;97.20;;;;;;4899696;29;20230;-72
2023/07/14 10:36:39;;;;;;;3.53;1.10;;;27.00;97.70;;;;;;4899905;29;20242;-75
2023/07/14 10:39:12;;;;;;;2.38;1.00;;;26.70;97.10;;;;;;4899797;29;20217;-75
2023/07/14 10:41:43;;;;;;;2.72;1.02;;;26.40;97.30;;;;;;4899234;29;20305;-75
2023/07/14 10:44:19;;;;;;;1.70;0.93;;;26.30;97.70;;;;;;4899685;29;20254;-72
2023/07/14 10:46:53;;;;;;;1.70;0.90;;;26.30;98.10;;;;;;4899460;29;20669;-72
2023/07/14 10:49:26;;;;;;;3.67;1.00;;;26.10;98.20;;;;;;4899429;29;20395;-72
2023/07/14 10:51:57;;;;;;;2.70;0.98;;;26.10;98.40;;;;;;4899520;29;20217;-72
2023/07/14 10:54:38;;;;;;;1.50;0.70;;;26.20;98.30;;;;;;4898979;29;20705;-75
2023/07/14 10:57:13;;;;;;;2.17;1.15;;;26.80;98.60;;;;;;4898931;29;20212;-74
2023/07/14 10:59:48;;;;;;;1.83;0.95;;;27.10;97.10;;;;;;4899265;29;20292;-75
2023/07/14 11:02:22;;;;;;;2.72;0.98;;;27.30;96.90;;;;;;4899174;29;20213;-75
2023/07/14 11:04:53;;;;;;;1.60;0.82;;;27.10;96.60;;;;;;4898966;29;20240;-75
2023/07/14 11:07:28;;;;;;;3.10;1.08;;;27.20;96.40;;;;;;4899249;29;20210;-75
2023/07/14 11:09:56;;;;;;;2.25;0.80;;;27.30;96.70;;;;;;4898976;29;20266;-73
2023/07/14 11:12:30;;;;;;;0.90;0.60;;;27.60;97.30;;;;;;4899018;29;20265;-75
2023/07/14 11:15:05;;;;;;;3.25;0.60;;;27.50;95.30;;;;;;4899092;29;20256;-75
2023/07/14 11:17:40;;;;;;;3.47;1.10;;;27.60;94.80;;;;;;4898961;29;20277;-73
2023/07/14 11:20:24;;;;;;;6.85;1.38;;;27.30;94.50;;;;;;4899174;29;20583;-76
2023/07/14 11:23:01;;;;;;;1.45;0.68;;;27.10;94.40;;;;;;4899089;29;20262;-73
2023/07/14 11:25:34;;;;;;;2.08;0.80;;;26.90;94.00;;;;;;4898833;29;20238;-71
2023/07/14 11:28:06;;;;;;;1.38;0.80;;;27.20;95.40;;;;;;4898858;29;20210;-74
2023/07/14 11:30:35;;;;;;;2.28;0.90;;;27.40;94.70;;;;;;4898790;29;20304;-73
2023/07/14 11:33:14;;;;;;;2.42;1.20;;;27.10;94.30;;;;;;4898182;29;20606;-73
2023/07/14 11:35:48;;;;;;;0.98;0.80;;;27.00;94.50;;;;;;4898692;29;20213;-74
2023/07/14 11:38:25;;;;;;;3.05;1.13;;;27.30;95.60;;;;;;4898584;29;20217;-71
2023/07/14 11:40:54;;;;;;;1.42;1.00;;;27.70;95.50;;;;;;4898411;29;20662;-72
2023/07/14 11:43:23;;;;;;;1.30;0.90;;;27.50;94.60;;;;;;4898046;29;20222;-71
2023/07/14 11:45:57;;;;;;;1.38;0.93;;;27.20;94.40;;;;;;4898168;29;20216;-70
2023/07/14 11:48:33;;;;;;;3.05;0.73;;;27.30;94.90;;;;;;4898069;29;20525;-72
2023/07/14 11:51:07;;;;;;;2.38;0.93;;;27.40;94.50;;;;;;4912258;29;20205;-73
2023/07/14 11:53:35;;;;;;;1.38;0.98;;;27.60;94.30;;;;;;4916676;29;20285;-73
2023/07/14 11:56:26;;;;;;;2.65;1.10;;;27.60;94.70;;;;;;4912662;29;20213;-73
2023/07/14 11:59:07;;;;;;;1.70;0.93;;;27.70;94.00;;;;;;4914185;29;20221;-72
2023/07/14 12:01:43;;;;;;;2.90;0.82;;;27.70;94.00;;;;;;4912578;29;20216;-72
2023/07/14 12:04:26;;;;;;;2.47;0.80;;;27.80;93.50;;;;;;4911907;29;20324;-72
2023/07/14 12:07:12;;;;;;;1.60;1.05;;;27.70;94.20;;;;;;4898061;29;20214;-73
2023/07/14 12:10:01;;;;;;;1.40;0.80;;;27.60;93.20;;;;;;4906425;29;20207;-73
2023/07/14 12:12:31;;;;;;;1.40;1.00;;;27.80;94.00;;;;;;4912509;29;20553;-72
2023/07/14 12:14:58;;;;;;;1.10;0.93;;;28.20;94.20;;;;;;4908842;29;20209;-73
2023/07/14 12:17:47;;;;;;;2.83;1.60;;;28.50;92.90;;;;;;4916756;29;20214;-70
2023/07/14 12:20:30;;;;;;;3.53;1.50;;;28.10;92.70;;;;;;4916748;29;20249;-74
2023/07/14 12:23:18;;;;;;;1.92;1.20;;;28.00;93.10;;;;;;4916227;29;20634;-72
2023/07/14 12:25:53;;;;;;;1.70;1.00;;;27.80;93.70;;;;;;4900116;29;20705;-73
2023/07/14 12:28:26;;;;;;;2.70;1.23;;;27.50;92.90;;;;;;4898230;29;20218;-73
2023/07/14 12:30:54;;;;;;;3.55;0.82;;;27.60;93.00;;;;;;4897593;29;20320;-74
2023/07/14 12:33:24;;;;;;;2.75;1.42;;;27.40;94.00;;;;;;4897695;29;20230;-73
2023/07/14 12:35:52;;;;;;;2.13;1.23;;;27.30;93.70;;;;;;4913973;29;20229;-75
2023/07/14 12:38:21;;;;;;;2.60;0.90;;;27.20;93.20;;;;;;4910408;29;20205;-73
2023/07/14 12:40:51;;;;;;;1.85;1.02;;;27.30;93.00;;;;;;4916740;29;20209;-74
2023/07/14 12:43:30;;;;;;;1.75;1.10;;;27.30;93.50;;;;;;4904459;29;20241;-74
2023/07/14 12:45:58;;;;;;;4.32;1.38;;;27.30;93.50;;;;;;4916820;29;20225;-74
2023/07/14 12:48:28;;;;;;;2.97;1.10;;;27.60;94.60;;;;;;4916152;29;20209;-74
2023/07/14 12:50:57;;;;;;;2.83;1.20;;;27.70;94.30;;;;;;4916151;29;20209;-74
2023/07/14 12:53:23;;;;;;;2.85;1.20;;;27.70;93.50;;;;;;4910380;29;20252;-74
2023/07/14 12:55:50;;;;;;;1.42;1.08;;;27.80;93.00;;;;;;4916821;29;20223;-75
2023/07/14 12:58:21;;;;;;;2.25;1.35;;;28.00;93.10;;;;;;4908093;29;20208;-72
2023/07/14 13:00:54;;;;;;;2.88;1.33;;;28.00;92.80;;;;;;4916582;29;20214;-75
2023/07/14 13:03:21;;;;;;;2.50;1.25;;;28.20;92.70;;;;;;4915839;29;20230;-75
2023/07/14 13:05:51;;;;;;;1.95;1.15;;;28.40;92.30;;;;;;4916407;29;20241;-75
2023/07/14 13:08:23;;;;;;;1.40;1.05;;;28.40;93.10;;;;;;4916451;29;20296;-75
2023/07/14 13:10:51;;;;;;;1.85;1.10;;;28.10;92.00;;;;;;4906528;29;20246;-75
2023/07/14 13:13:21;;;;;;;2.38;1.15;;;28.00;93.70;;;;;;4907583;29;20233;-70
2023/07/14 13:15:51;;;;;;;3.28;1.40;;;27.90;93.00;;;;;;4914448;29;20232;-75
2023/07/14 13:18:27;;;;;;;3.30;1.33;;;27.90;92.80;;;;;;4914277;29;20217;-74
2023/07/14 13:20:56;;;;;;;2.60;1.30;;;27.80;92.80;;;;;;4915096;29;20216;-72
2023/07/14 13:23:27;;;;;;;2.22;1.20;;;27.70;92.20;;;;;;4914198;29;20724;-75
2023/07/14 13:26:01;;;;;;;1.60;1.05;;;27.70;92.50;;;;;;4928800;29;20244;-70
2023/07/14 13:28:32;;;;;;;2.70;1.10;;;27.80;91.80;;;;;;4914588;29;20322;-71
2023/07/14 13:31:03;;;;;;;2.85;1.23;;;27.80;92.10;;;;;;4914524;29;20215;-84
2023/07/14 13:33:31;;;;;;;2.45;1.35;;;27.60;92.00;;;;;;4913718;29;20241;-85
2023/07/14 13:36:01;;;;;;;3.45;1.20;;;27.40;91.90;;;;;;4918634;29;20216;-75
2023/07/14 13:38:30;;;;;;;1.98;1.10;;;27.50;93.10;;;;;;4918527;29;20210;-69
2023/07/14 13:41:08;;;;;;;2.40;1.13;;;27.60;92.50;;;;;;4919288;29;20671;-75
2023/07/14 13:43:35;;;;;;;1.60;1.17;;;27.40;92.40;;;;;;4917438;29;20371;-78
2023/07/14 13:46:09;;;;;;;2.90;1.17;;;27.40;92.30;;;;;;4918606;29;20328;-69
2023/07/14 13:48:37;;;;;;;1.75;1.00;;;27.10;92.30;;;;;;4914466;29;20665;-70
2023/07/14 13:51:14;;;;;;;2.13;1.17;;;26.60;93.10;;;;;;4901838;29;20219;-69
2023/07/14 13:53:42;;;;;;;2.13;1.27;;;26.30;93.90;;;;;;4917751;29;20233;-69
2023/07/14 13:56:16;;;;;;;2.92;1.15;;;26.30;95.10;;;;;;4918046;29;20228;-69
2023/07/14 13:58:44;;;;;;;1.67;1.20;;;26.30;94.40;;;;;;4918014;29;20209;-69
2023/07/14 14:01:12;;;;;;;1.88;0.95;;;26.20;94.30;;;;;;4918144;29;20231;-86
2023/07/14 14:03:39;;;;;;;2.38;1.38;;;26.40;94.70;;;;;;4916787;29;20258;-72
2023/07/14 14:06:11;;;;;;;2.85;1.40;;;26.50;94.30;;;;;;4917318;29;20244;-72
2023/07/14 14:08:38;;;;;;;4.05;1.10;;;26.80;93.70;;;;;;4917479;29;20206;-75
2023/07/14 14:11:06;;;;;;;3.05;1.25;;;26.90;93.60;;;;;;4917935;29;20309;-70
2023/07/14 14:13:33;;;;;;;1.63;0.93;;;26.90;93.50;;;;;;4917312;29;20230;-70
2023/07/14 14:16:03;;;;;;;2.13;1.05;;;27.30;93.60;;;;;;4917696;29;20217;-76
2023/07/14 14:18:31;;;;;;;1.60;1.00;;;27.30;93.10;;;;;;4904740;29;20730;-75
2023/07/14 14:20:58;;;;;;;2.08;1.40;;;27.70;92.90;;;;;;4898812;29;20685;-72
2023/07/14 14:23:26;;;;;;;2.45;1.23;;;27.90;92.60;;;;;;4903741;29;20230;-70
2023/07/14 14:25:54;;;;;;;3.50;1.20;;;27.90;93.30;;;;;;4898531;29;20793;-70
2023/07/14 14:28:23;;;;;;;2.85;1.20;;;28.00;94.10;;;;;;4898852;29;20216;-77
2023/07/14 14:30:52;;;;;;;3.58;1.20;;;28.10;92.50;;;;;;4898485;29;20270;-70
2023/07/14 14:33:21;;;;;;;1.52;0.93;;;27.80;92.20;;;;;;4914596;29;20229;-70
2023/07/14 14:35:48;;;;;;;2.17;1.00;;;27.40;91.90;;;;;;4917616;29;20213;-73
2023/07/14 14:38:18;;;;;;;3.35;1.08;;;27.40;92.70;;;;;;4907674;29;20215;-72
2023/07/14 14:40:47;;;;;;;2.50;1.05;;;27.20;91.80;;;;;;4898868;29;20214;-71
2023/07/14 14:43:16;;;;;;;2.30;1.27;;;27.30;91.90;;;;;;4904394;29;20226;-71
2023/07/14 14:45:45;;;;;;;3.60;0.93;;;27.20;92.20;;;;;;4897328;29;20619;-70
2023/07/14 14:48:17;;;;;;;1.48;0.80;;;27.00;93.60;;;;;;4906175;29;20711;-75
2023/07/14 14:50:45;;;;;;;3.28;1.38;;;27.10;93.20;;;;;;4899582;29;20294;-74
2023/07/14 14:53:13;;;;;;;2.60;0.90;;;27.20;92.20;;;;;;4908091;29;20225;-76
2023/07/14 14:55:41;;;;;;;1.88;0.80;;;27.00;92.80;;;;;;4918235;29;20838;-71
2023/07/14 14:58:17;;;;;;;2.70;0.90;;;27.00;92.30;;;;;;4918037;29;20550;-78
2023/07/14 15:00:52;;;;;;;1.92;0.80;;;26.80;93.00;;;;;;4918683;29;20221;-79
2023/07/14 15:03:19;;;;;;;1.48;0.75;;;26.70;92.90;;;;;;4911208;29;20255;-77
2023/07/14 15:05:46;;;;;;;1.38;0.73;;;26.50;92.90;;;;;;4918373;29;20260;-76
2023/07/14 15:08:13;;;;;;;2.78;1.02;;;26.40;93.00;;;;;;4917765;29;20661;-77
2023/07/14 15:10:40;;;;;;;1.38;0.95;;;26.60;93.60;;;;;;4918517;29;20224;-79
2023/07/14 15:13:15;;;;;;;2.40;1.02;;;26.60;93.40;;;;;;4917615;29;20225;-82
2023/07/14 15:15:42;;;;;;;6.45;1.10;;;26.60;93.20;;;;;;4899594;29;20232;-80
2023/07/14 15:18:12;;;;;;;1.55;0.80;;;26.70;93.60;;;;;;4906207;29;20292;-72
2023/07/14 15:20:39;;;;;;;1.40;0.90;;;26.70;94.00;;;;;;4918159;29;20256;-76
2023/07/14 15:23:08;;;;;;;3.75;0.80;;;26.90;94.40;;;;;;4917637;29;20235;-75
2023/07/14 15:25:37;;;;;;;0.80;0.60;;;27.00;93.90;;;;;;4917647;29;20244;-71
2023/07/14 15:28:04;;;;;;;4.43;1.13;;;26.90;93.90;;;;;;4917617;29;20210;-75
2023/07/14 15:30:33;;;;;;;1.77;0.85;;;26.80;93.40;;;;;;4918005;29;20213;-75
2023/07/14 15:33:03;;;;;;;2.75;0.70;;;26.80;93.50;;;;;;4918028;29;20230;-80
2023/07/14 15:35:32;;;;;;;1.15;0.75;;;26.70;93.40;;;;;;4917606;29;20235;-79
2023/07/14 15:38:00;;;;;;;1.35;0.75;;;26.70;93.80;;;;;;4917999;29;20237;-75
2023/07/14 15:40:39;;;;;;;1.15;0.73;;;26.70;93.20;;;;;;4915506;29;20209;-75
2023/07/14 15:43:19;;;;;;;1.08;0.82;;;26.60;93.90;;;;;;4912534;29;20229;-77
2023/07/14 15:45:47;;;;;;;1.45;0.75;;;26.90;94.30;;;;;;4917688;29;20328;-75
2023/07/14 15:48:15;;;;;;;1.23;0.70;;;27.10;93.90;;;;;;4900872;29;20206;-78
2023/07/14 15:50:43;;;;;;;1.23;0.77;;;27.20;93.90;;;;;;4898591;29;20210;-79
2023/07/14 15:53:16;;;;;;;2.38;0.90;;;27.00;93.60;;;;;;4913344;29;20229;-81
2023/07/14 15:55:43;;;;;;;1.52;0.93;;;26.90;93.60;;;;;;4917814;29;20577;-81
2023/07/14 15:58:15;;;;;;;1.90;0.88;;;27.00;94.60;;;;;;4916587;29;20216;-72
2023/07/14 16:00:42;;;;;;;1.45;0.80;;;26.90;93.80;;;;;;4917693;29;20209;-76
2023/07/14 16:03:10;;;;;;;2.85;1.00;;;27.00;94.00;;;;;;4907315;29;20327;-74
2023/07/14 16:05:38;;;;;;;4.50;0.80;;;27.10;94.20;;;;;;4917230;29;20245;-80
2023/07/14 16:08:09;;;;;;;2.78;0.95;;;27.20;93.40;;;;;;4913212;29;20212;-79
2023/07/14 16:10:38;;;;;;;1.67;0.98;;;27.20;92.80;;;;;;4917168;29;20669;-78
2023/07/14 16:13:05;;;;;;;1.88;1.08;;;27.00;92.60;;;;;;4916910;29;20292;-78
2023/07/14 16:15:33;;;;;;;2.45;0.90;;;26.90;92.20;;;;;;4917139;29;20229;-79
2023/07/14 16:17:59;;;;;;;3.70;1.00;;;26.90;93.10;;;;;;4916885;29;20732;-80
2023/07/14 16:20:29;;;;;;;4.60;1.00;;;27.00;92.80;;;;;;4916941;29;20205;-76
2023/07/14 16:23:00;;;;;;;2.17;0.90;;;27.10;93.20;;;;;;4916795;29;20237;-75
2023/07/14 16:25:30;;;;;;;2.70;0.90;;;27.10;92.40;;;;;;4916842;29;20236;-75
2023/07/14 16:27:57;;;;;;;1.92;0.90;;;27.30;93.00;;;;;;4917279;29;20209;-72
2023/07/14 16:30:27;;;;;;;3.78;1.30;;;27.50;92.90;;;;;;4917135;29;20215;-76
2023/07/14 16:32:54;;;;;;;2.08;0.88;;;27.50;92.30;;;;;;4916939;29;20597;-72
2023/07/14 16:35:23;;;;;;;1.80;0.80;;;27.50;92.30;;;;;;4916779;29;20223;-70
2023/07/14 16:37:52;;;;;;;2.17;1.02;;;27.50;93.20;;;;;;4916861;29;20209;-76
2023/07/14 16:40:23;;;;;;;2.60;0.80;;;27.50;92.00;;;;;;4916950;29;20300;-75
2023/07/14 16:42:52;;;;;;;2.67;1.08;;;27.40;92.00;;;;;;4916980;29;20229;-75
2023/07/14 16:45:21;;;;;;;1.83;1.00;;;27.30;91.80;;;;;;4916781;29;20225;-76
2023/07/14 16:47:48;;;;;;;1.98;1.17;;;27.30;91.90;;;;;;4916644;29;20245;-75
2023/07/14 16:50:15;;;;;;;2.00;0.90;;;27.20;92.20;;;;;;4916743;29;20599;-75
2023/07/14 16:52:44;;;;;;;1.42;0.95;;;27.20;92.40;;;;;;4916486;29;20240;-73
2023/07/14 16:55:14;;;;;;;1.58;1.00;;;27.10;91.50;;;;;;4916796;29;20220;-75
2023/07/14 16:57:41;;;;;;;2.58;1.00;;;27.00;92.30;;;;;;4916509;29;20210;-76
2023/07/14 17:00:26;;;;;;;3.53;0.98;;;27.00;91.40;;;;;;4916319;29;20216;-75
2023/07/14 17:02:57;;;;;;;1.77;1.08;;;27.10;91.50;;;;;;4916679;29;20289;-72
2023/07/14 17:05:26;;;;;;;3.38;1.02;;;27.20;91.10;;;;;;4916828;29;20256;-75
2023/07/14 17:07:53;;;;;;;3.05;1.05;;;27.40;90.80;;;;;;4917251;29;20677;-73
2023/07/14 17:10:22;;;;;;;2.58;0.90;;;27.50;91.40;;;;;;4920557;29;20206;-73
2023/07/14 17:12:50;;;;;;;3.03;0.88;;;27.50;91.40;;;;;;4920489;29;20233;-75
2023/07/14 17:15:18;;;;;;;3.72;0.95;;;27.50;91.90;;;;;;4920200;29;20311;-75
2023/07/14 17:17:45;;;;;;;2.60;0.90;;;27.40;91.20;;;;;;4920176;29;20210;-75
2023/07/14 17:20:14;;;;;;;2.65;0.73;;;27.40;91.50;;;;;;4920540;29;20225;-75
2023/07/14 17:22:42;;;;;;;2.10;1.00;;;27.30;91.40;;;;;;4920375;29;20252;-75
2023/07/14 17:25:18;;;;;;;1.00;0.90;;;27.30;92.00;;;;;;4919832;29;20206;-75
2023/07/14 17:27:45;;;;;;;1.80;0.90;;;27.40;92.00;;;;;;4920029;29;20244;-75
2023/07/14 17:30:19;;;;;;;2.75;1.30;;;27.50;93.10;;;;;;4919445;29;20209;-75
2023/07/14 17:32:49;;;;;;;5.28;1.00;;;27.60;93.20;;;;;;4919737;29;20315;-75
2023/07/14 17:35:16;;;;;;;2.20;1.02;;;27.70;92.20;;;;;;4919596;29;20205;-75
2023/07/14 17:37:44;;;;;;;1.70;0.90;;;27.80;92.80;;;;;;4919782;29;20221;-73
2023/07/14 17:40:20;;;;;;;2.03;0.85;;;27.80;91.60;;;;;;4919935;29;20217;-76
2023/07/14 17:42:47;;;;;;;1.92;0.80;;;27.70;91.50;;;;;;4919302;29;20241;-74
2023/07/14 17:45:14;;;;;;;2.25;0.63;;;27.70;92.90;;;;;;4919538;29;20224;-75
2023/07/14 17:47:41;;;;;;;2.55;0.95;;;27.70;91.80;;;;;;4919446;29;20220;-76
2023/07/14 17:50:10;;;;;;;1.20;0.90;;;27.70;92.50;;;;;;4919435;29;20210;-76
2023/07/14 17:52:38;;;;;;;2.33;1.00;;;27.70;91.30;;;;;;4919310;29;20229;-74
2023/07/14 17:55:07;;;;;;;2.17;1.10;;;27.60;91.50;;;;;;4919246;29;20713;-72
2023/07/14 17:57:36;;;;;;;1.55;0.65;;;27.50;92.50;;;;;;4919342;29;20220;-75
2023/07/14 18:00:04;;;;;;;2.42;0.90;;;27.50;91.90;;;;;;4919375;29;20209;-75
2023/07/14 18:02:36;;;;;;;1.10;0.90;;;27.50;91.90;;;;;;4919081;29;20218;-75
2023/07/14 18:05:03;;;;;;;2.47;0.95;;;27.50;92.20;;;;;;4919439;29;20216;-74
2023/07/14 18:07:32;;;;;;;1.50;0.85;;;27.30;91.80;;;;;;4919048;29;20332;-76
2023/07/14 18:09:59;;;;;;;1.80;0.95;;;27.30;92.10;;;;;;4919102;29;20206;-74
2023/07/14 18:12:27;;;;;;;1.52;0.90;;;27.30;92.50;;;;;;4919296;29;20300;-76
2023/07/14 18:14:54;;;;;;;2.65;1.17;;;27.40;93.10;;;;;;4919225;29;20209;-75
2023/07/14 18:17:21;;;;;;;3.97;1.10;;;27.10;92.80;;;;;;4919047;29;20232;-74
2023/07/14 18:19:48;;;;;;;2.72;1.00;;;27.10;93.10;;;;;;4917945;29;20205;-75
2023/07/14 18:22:27;;;;;;;1.50;0.90;;;27.00;93.10;;;;;;4918953;29;20252;-76
2023/07/14 18:24:56;;;;;;;1.90;0.80;;;27.00;93.90;;;;;;4918834;29;20296;-74
2023/07/14 18:27:23;;;;;;;1.75;0.95;;;26.90;93.80;;;;;;4918699;29;20603;-75
2023/07/14 18:29:50;;;;;;;2.25;1.00;;;26.80;94.40;;;;;;4918652;29;20205;-75
2023/07/14 18:32:17;;;;;;;3.03;0.90;;;26.80;95.10;;;;;;4918328;29;20206;-75
2023/07/14 18:34:44;;;;;;;4.10;1.20;;;26.70;94.50;;;;;;4918557;29;20210;-76
2023/07/14 18:37:13;;;;;;;3.25;0.90;;;26.60;95.10;;;;;;4918687;29;20220;-74
2023/07/14 18:39:41;;;;;;;1.23;0.90;;;26.50;94.60;;;;;;4918343;29;20214;-75
2023/07/14 18:42:13;;;;;;;1.17;0.70;;;26.50;94.90;;;;;;4918491;29;20210;-75
2023/07/14 18:44:40;;;;;;;4.75;1.10;;;26.60;96.00;;;;;;4918604;29;20219;-75
2023/07/14 18:47:12;;;;;;;2.92;1.00;;;26.50;95.90;;;;;;4917995;29;20243;-76
2023/07/14 18:49:39;;;;;;;3.15;1.05;;;26.40;95.60;;;;;;4918621;29;20216;-76
2023/07/14 18:52:10;;;;;;;2.08;0.85;;;26.30;94.80;;;;;;4918788;29;20216;-76
2023/07/14 18:54:37;;;;;;;2.47;0.90;;;26.30;95.10;;;;;;4918454;29;20236;-75
2023/07/14 18:57:11;;;;;;;1.98;0.80;;;26.10;95.20;;;;;;4918142;29;20206;-75
2023/07/14 18:59:39;;;;;;;1.98;1.10;;;26.10;95.00;;;;;;4917970;29;20213;-76
2023/07/14 19:02:24;;;;;;;2.30;1.00;;;26.10;95.80;;;;;;4917909;29;20300;-76
2023/07/14 19:04:51;;;;;;;3.92;1.08;;;26.00;95.30;;;;;;4917907;29;20214;-76
2023/07/14 19:07:19;;;;;;;1.48;1.02;;;26.00;95.50;;;;;;4918013;29;20236;-75
2023/07/14 19:09:46;;;;;;;2.22;1.00;;;26.00;95.60;;;;;;4917600;29;20684;-75
2023/07/14 19:12:13;;;;;;;1.38;1.08;;;26.10;95.90;;;;;;4917588;29;20216;-75
2023/07/14 19:14:41;;;;;;;2.25;1.00;;;26.20;96.00;;;;;;4917958;29;20300;-75
2023/07/14 19:17:13;;;;;;;4.10;1.60;;;26.30;96.60;;;;;;4955887;23;20236;-67
2023/07/14 19:19:41;;;;;;;2.53;1.10;;;26.30;97.10;;;;;;4956095;28;20216;-67
2023/07/14 19:22:10;;;;;;;1.52;1.00;;;26.20;96.90;;;;;;4956257;28;20212;-73
2023/07/14 19:24:37;;;;;;;2.20;0.90;;;26.00;97.40;;;;;;4955681;28;20228;-74
2023/07/14 19:27:07;;;;;;;2.60;1.02;;;25.90;97.40;;;;;;4955659;28;20243;-74
2023/07/14 19:29:34;;;;;;;4.03;0.82;;;25.80;98.00;;;;;;4955712;28;20754;-73
2023/07/14 19:32:05;;;;;;;1.48;1.00;;;25.60;98.20;;;;;;4955582;28;20294;-73
2023/07/14 19:34:33;;;;;;;3.55;1.27;;;25.50;98.70;;;;;;4955787;28;20627;-72
2023/07/14 19:37:00;;;;;;;2.00;1.00;;;25.40;98.90;;;;;;4955982;28;20214;-71
2023/07/14 19:39:27;;;;;;;2.45;0.88;;;25.30;98.90;;;;;;4955655;28;20207;-72
2023/07/14 19:41:55;;;;;;;2.30;1.10;;;25.20;99.30;;;;;;4955472;28;20207;-72
2023/07/14 19:44:23;;;;;;;2.10;1.02;;;25.10;99.60;;;;;;4955399;28;20228;-73
2023/07/14 19:46:50;;;;;;;2.22;1.15;;;25.00;99.90;;;;;;4955177;28;20306;-73
2023/07/14 19:49:19;;;;;;;2.42;1.58;;;24.90;99.90;;;;;;4955308;28;20324;-74
2023/07/14 19:51:48;;;;;;;6.32;2.42;;;24.70;99.90;;;;;;4955229;28;20231;-73
2023/07/14 19:54:17;;;;;;;5.43;2.92;;;24.50;99.90;;;;;;4955006;28;20234;-73
2023/07/14 19:56:45;;;;;;;3.97;1.70;;;24.40;99.90;;;;;;4955296;28;20212;-73
2023/07/14 19:59:15;;;;;;;4.03;1.33;;;24.30;99.90;;;;;;4955063;28;20218;-73
2023/07/14 20:01:41;;;;;;;2.75;1.38;;;24.20;99.90;;;;;;4955053;28;20208;-74
2023/07/14 20:04:09;;;;;;;2.20;1.20;;;24.10;99.90;;;;;;4954751;28;20232;-74
2023/07/14 20:06:38;;;;;;;3.83;1.30;;;24.00;99.90;;;;;;4955227;28;20251;-72
2023/07/14 20:09:06;;;;;;;1.77;1.10;;;23.90;99.90;;;;;;4955068;28;20303;-72
2023/07/14 20:11:34;;;;;;;2.92;1.05;;;23.80;99.90;;;;;;4955060;28;20216;-73
2023/07/14 20:14:02;;;;;;;2.75;1.13;;;23.70;99.90;;;;;;4955180;28;20228;-74
2023/07/14 20:16:29;;;;;;;2.15;1.48;;;23.60;99.90;;;;;;4955193;28;20228;-71
2023/07/14 20:18:56;;;;;;;5.78;2.58;;;23.50;99.90;;;;;;4954903;28;20214;-73
2023/07/14 20:21:28;;;;;;;4.68;2.30;;;23.30;99.90;;;;;;4954833;28;20298;-73